sensor_id;sensor_type;location;lat;lon;timestamp;temperature;humidity
7606;DHT22;3844;53.360;9.738;2022-08-19T00:02:37;19.20;91.90
7606;DHT22;3844;53.360;9.738;2022-08-19T00:04:38;19.10;92.10
7606;DHT22;3844;53.360;9.738;2022-08-19T00:06:42;19.10;92.20
7606;DHT22;3844;53.360;9.738;2022-08-19T00:08:43;19.10;92.30
7606;DHT22;3844;53.360;9.738;2022-08-19T00:10:44;19.00;92.50
7606;DHT22;3844;53.360;9.738;2022-08-19T00:12:46;18.90;93.00
7606;DHT22;3844;53.360;9.738;2022-08-19T00:14:47;18.90;93.10
7606;DHT22;3844;53.360;9.738;2022-08-19T00:16:48;18.90;93.20
7606;DHT22;3844;53.360;9.738;2022-08-19T00:18:49;18.90;93.30
7606;DHT22;3844;53.360;9.738;2022-08-19T00:20:50;18.80;93.40
7606;DHT22;3844;53.360;9.738;2022-08-19T00:22:51;18.80;93.40
7606;DHT22;3844;53.360;9.738;2022-08-19T00:24:52;18.90;93.40
7606;DHT22;3844;53.360;9.738;2022-08-19T00:28:54;18.80;93.50
7606;DHT22;3844;53.360;9.738;2022-08-19T00:30:55;18.80;93.40
7606;DHT22;3844;53.360;9.738;2022-08-19T00:32:57;18.90;93.40
7606;DHT22;3844;53.360;9.738;2022-08-19T00:34:58;18.90;93.50
7606;DHT22;3844;53.360;9.738;2022-08-19T00:36:58;18.90;93.50
7606;DHT22;3844;53.360;9.738;2022-08-19T00:39:00;18.90;93.60
7606;DHT22;3844;53.360;9.738;2022-08-19T00:41:01;18.90;93.40
7606;DHT22;3844;53.360;9.738;2022-08-19T00:43:10;18.90;93.30
7606;DHT22;3844;53.360;9.738;2022-08-19T00:45:18;18.90;93.30
7606;DHT22;3844;53.360;9.738;2022-08-19T00:47:20;18.80;93.40
7606;DHT22;3844;53.360;9.738;2022-08-19T00:49:31;18.80;93.60
7606;DHT22;3844;53.360;9.738;2022-08-19T00:51:33;18.80;93.70
7606;DHT22;3844;53.360;9.738;2022-08-19T00:53:35;18.80;93.70
7606;DHT22;3844;53.360;9.738;2022-08-19T00:55:36;18.80;93.60
7606;DHT22;3844;53.360;9.738;2022-08-19T00:57:43;18.80;93.60
7606;DHT22;3844;53.360;9.738;2022-08-19T00:59:48;18.80;93.60
7606;DHT22;3844;53.360;9.738;2022-08-19T01:01:52;18.80;93.90
7606;DHT22;3844;53.360;9.738;2022-08-19T01:03:53;18.70;93.90
7606;DHT22;3844;53.360;9.738;2022-08-19T01:05:54;18.70;94.00
7606;DHT22;3844;53.360;9.738;2022-08-19T01:07:57;18.70;94.00
7606;DHT22;3844;53.360;9.738;2022-08-19T01:09:59;18.70;93.90
7606;DHT22;3844;53.360;9.738;2022-08-19T01:12:00;18.80;93.90
7606;DHT22;3844;53.360;9.738;2022-08-19T01:14:01;18.70;93.90
7606;DHT22;3844;53.360;9.738;2022-08-19T01:16:05;18.70;94.00
7606;DHT22;3844;53.360;9.738;2022-08-19T01:18:10;18.70;93.90
7606;DHT22;3844;53.360;9.738;2022-08-19T01:20:15;18.70;93.90
7606;DHT22;3844;53.360;9.738;2022-08-19T01:24:23;18.70;94.00
7606;DHT22;3844;53.360;9.738;2022-08-19T01:26:25;18.70;93.80
7606;DHT22;3844;53.360;9.738;2022-08-19T01:28:27;18.70;93.90
7606;DHT22;3844;53.360;9.738;2022-08-19T01:30:34;18.60;94.10
7606;DHT22;3844;53.360;9.738;2022-08-19T01:32:35;18.60;93.90
7606;DHT22;3844;53.360;9.738;2022-08-19T01:34:36;18.60;94.10
7606;DHT22;3844;53.360;9.738;2022-08-19T01:36:42;18.60;94.20
7606;DHT22;3844;53.360;9.738;2022-08-19T01:38:45;18.50;94.30
7606;DHT22;3844;53.360;9.738;2022-08-19T01:40:46;18.50;94.50
7606;DHT22;3844;53.360;9.738;2022-08-19T01:42:48;18.50;94.50
7606;DHT22;3844;53.360;9.738;2022-08-19T01:44:49;18.50;94.70
7606;DHT22;3844;53.360;9.738;2022-08-19T01:46:51;18.50;94.70
7606;DHT22;3844;53.360;9.738;2022-08-19T01:48:52;18.50;94.70
7606;DHT22;3844;53.360;9.738;2022-08-19T01:50:52;18.50;94.80
7606;DHT22;3844;53.360;9.738;2022-08-19T01:52:53;18.50;94.80
7606;DHT22;3844;53.360;9.738;2022-08-19T01:54:54;18.40;94.80
7606;DHT22;3844;53.360;9.738;2022-08-19T01:57:07;18.40;94.90
7606;DHT22;3844;53.360;9.738;2022-08-19T01:59:16;18.40;94.90
7606;DHT22;3844;53.360;9.738;2022-08-19T02:01:18;18.40;94.70
7606;DHT22;3844;53.360;9.738;2022-08-19T02:03:19;18.40;94.80
7606;DHT22;3844;53.360;9.738;2022-08-19T02:05:20;18.40;94.80
7606;DHT22;3844;53.360;9.738;2022-08-19T02:07:22;18.40;94.90
7606;DHT22;3844;53.360;9.738;2022-08-19T02:09:22;18.40;95.00
7606;DHT22;3844;53.360;9.738;2022-08-19T02:11:30;18.40;95.00
7606;DHT22;3844;53.360;9.738;2022-08-19T02:13:32;18.40;94.90
7606;DHT22;3844;53.360;9.738;2022-08-19T02:15:33;18.40;94.90
7606;DHT22;3844;53.360;9.738;2022-08-19T02:17:35;18.40;94.80
7606;DHT22;3844;53.360;9.738;2022-08-19T02:19:36;18.40;94.90
7606;DHT22;3844;53.360;9.738;2022-08-19T02:21:37;18.40;94.90
7606;DHT22;3844;53.360;9.738;2022-08-19T02:23:37;18.40;94.90
7606;DHT22;3844;53.360;9.738;2022-08-19T02:25:39;18.40;95.10
7606;DHT22;3844;53.360;9.738;2022-08-19T02:27:41;18.40;94.90
7606;DHT22;3844;53.360;9.738;2022-08-19T02:29:42;18.40;95.00
7606;DHT22;3844;53.360;9.738;2022-08-19T02:31:42;18.40;95.10
7606;DHT22;3844;53.360;9.738;2022-08-19T02:33:44;18.40;95.10
7606;DHT22;3844;53.360;9.738;2022-08-19T02:35:46;18.40;95.00
7606;DHT22;3844;53.360;9.738;2022-08-19T02:37:47;18.40;95.10
7606;DHT22;3844;53.360;9.738;2022-08-19T02:40:07;18.40;95.10
7606;DHT22;3844;53.360;9.738;2022-08-19T02:42:07;18.40;95.20
7606;DHT22;3844;53.360;9.738;2022-08-19T02:44:08;18.40;95.10
7606;DHT22;3844;53.360;9.738;2022-08-19T02:46:18;18.40;95.20
7606;DHT22;3844;53.360;9.738;2022-08-19T02:48:23;18.40;95.30
7606;DHT22;3844;53.360;9.738;2022-08-19T02:50:24;18.40;95.20
7606;DHT22;3844;53.360;9.738;2022-08-19T02:52:24;18.40;95.10
7606;DHT22;3844;53.360;9.738;2022-08-19T02:54:25;18.40;95.10
7606;DHT22;3844;53.360;9.738;2022-08-19T02:56:27;18.40;95.30
7606;DHT22;3844;53.360;9.738;2022-08-19T02:58:27;18.40;95.20
7606;DHT22;3844;53.360;9.738;2022-08-19T03:00:28;18.30;95.40
7606;DHT22;3844;53.360;9.738;2022-08-19T03:02:29;18.30;95.30
7606;DHT22;3844;53.360;9.738;2022-08-19T03:04:30;18.30;95.40
7606;DHT22;3844;53.360;9.738;2022-08-19T03:06:32;18.30;95.60
7606;DHT22;3844;53.360;9.738;2022-08-19T03:08:32;18.30;95.40
7606;DHT22;3844;53.360;9.738;2022-08-19T03:12:39;18.30;95.60
7606;DHT22;3844;53.360;9.738;2022-08-19T03:14:40;18.30;95.70
7606;DHT22;3844;53.360;9.738;2022-08-19T03:16:44;18.30;95.60
7606;DHT22;3844;53.360;9.738;2022-08-19T03:18:46;18.30;95.40
7606;DHT22;3844;53.360;9.738;2022-08-19T03:20:52;18.30;95.50
7606;DHT22;3844;53.360;9.738;2022-08-19T03:22:56;18.20;95.70
7606;DHT22;3844;53.360;9.738;2022-08-19T03:24:58;18.20;95.70
7606;DHT22;3844;53.360;9.738;2022-08-19T03:26:59;18.20;95.70
7606;DHT22;3844;53.360;9.738;2022-08-19T03:29:04;18.20;95.70
7606;DHT22;3844;53.360;9.738;2022-08-19T03:31:08;18.20;95.70
7606;DHT22;3844;53.360;9.738;2022-08-19T03:33:11;18.20;95.70
7606;DHT22;3844;53.360;9.738;2022-08-19T03:35:14;18.20;95.70
7606;DHT22;3844;53.360;9.738;2022-08-19T03:37:15;18.20;95.70
7606;DHT22;3844;53.360;9.738;2022-08-19T03:39:16;18.20;95.70
7606;DHT22;3844;53.360;9.738;2022-08-19T03:41:19;18.20;95.70
7606;DHT22;3844;53.360;9.738;2022-08-19T03:43:20;18.20;95.70
7606;DHT22;3844;53.360;9.738;2022-08-19T03:45:21;18.20;95.70
7606;DHT22;3844;53.360;9.738;2022-08-19T03:47:22;18.20;95.70
7606;DHT22;3844;53.360;9.738;2022-08-19T03:49:25;18.20;95.70
7606;DHT22;3844;53.360;9.738;2022-08-19T03:51:32;18.20;95.70
7606;DHT22;3844;53.360;9.738;2022-08-19T03:53:34;18.20;95.70
7606;DHT22;3844;53.360;9.738;2022-08-19T03:55:44;18.10;95.70
7606;DHT22;3844;53.360;9.738;2022-08-19T03:57:45;18.10;95.70
7606;DHT22;3844;53.360;9.738;2022-08-19T03:59:46;18.10;95.70
7606;DHT22;3844;53.360;9.738;2022-08-19T04:01:47;18.10;95.70
7606;DHT22;3844;53.360;9.738;2022-08-19T04:03:48;18.00;95.70
7606;DHT22;3844;53.360;9.738;2022-08-19T04:05:50;18.00;95.70
7606;DHT22;3844;53.360;9.738;2022-08-19T04:07:50;18.00;95.70
7606;DHT22;3844;53.360;9.738;2022-08-19T04:09:51;18.00;95.70
7606;DHT22;3844;53.360;9.738;2022-08-19T04:11:53;18.00;95.70
7606;DHT22;3844;53.360;9.738;2022-08-19T04:13:55;18.00;95.70
7606;DHT22;3844;53.360;9.738;2022-08-19T04:15:57;18.00;95.70
7606;DHT22;3844;53.360;9.738;2022-08-19T04:17:57;18.00;95.70
7606;DHT22;3844;53.360;9.738;2022-08-19T04:22:00;18.00;95.70
7606;DHT22;3844;53.360;9.738;2022-08-19T04:24:02;18.00;95.70
7606;DHT22;3844;53.360;9.738;2022-08-19T04:26:03;18.00;95.70
7606;DHT22;3844;53.360;9.738;2022-08-19T04:28:03;18.00;95.70
7606;DHT22;3844;53.360;9.738;2022-08-19T04:30:05;18.00;95.70
7606;DHT22;3844;53.360;9.738;2022-08-19T04:32:06;18.00;95.70
7606;DHT22;3844;53.360;9.738;2022-08-19T04:34:08;18.00;95.70
7606;DHT22;3844;53.360;9.738;2022-08-19T04:36:19;18.00;95.70
7606;DHT22;3844;53.360;9.738;2022-08-19T04:38:21;18.00;95.70
7606;DHT22;3844;53.360;9.738;2022-08-19T04:40:25;18.00;95.70
7606;DHT22;3844;53.360;9.738;2022-08-19T04:42:44;18.00;95.70
7606;DHT22;3844;53.360;9.738;2022-08-19T04:44:44;18.00;95.70
7606;DHT22;3844;53.360;9.738;2022-08-19T04:46:47;18.00;95.70
7606;DHT22;3844;53.360;9.738;2022-08-19T04:48:51;17.90;95.70
7606;DHT22;3844;53.360;9.738;2022-08-19T04:50:54;17.90;95.70
7606;DHT22;3844;53.360;9.738;2022-08-19T04:52:57;17.90;95.70
7606;DHT22;3844;53.360;9.738;2022-08-19T04:54:58;18.00;95.70
7606;DHT22;3844;53.360;9.738;2022-08-19T04:56:59;18.00;95.70
7606;DHT22;3844;53.360;9.738;2022-08-19T04:59:00;18.00;95.70
7606;DHT22;3844;53.360;9.738;2022-08-19T05:01:04;18.00;95.70
7606;DHT22;3844;53.360;9.738;2022-08-19T05:03:05;18.00;95.70
7606;DHT22;3844;53.360;9.738;2022-08-19T05:05:06;18.00;95.70
7606;DHT22;3844;53.360;9.738;2022-08-19T05:07:08;18.00;95.70
7606;DHT22;3844;53.360;9.738;2022-08-19T05:09:08;18.00;95.70
7606;DHT22;3844;53.360;9.738;2022-08-19T05:11:10;18.10;95.70
7606;DHT22;3844;53.360;9.738;2022-08-19T05:13:11;18.20;95.70
7606;DHT22;3844;53.360;9.738;2022-08-19T05:15:12;18.20;95.70
7606;DHT22;3844;53.360;9.738;2022-08-19T05:17:14;18.20;95.70
7606;DHT22;3844;53.360;9.738;2022-08-19T05:19:15;18.30;95.70
7606;DHT22;3844;53.360;9.738;2022-08-19T05:21:34;18.30;95.70
7606;DHT22;3844;53.360;9.738;2022-08-19T05:23:54;18.30;95.70
7606;DHT22;3844;53.360;9.738;2022-08-19T05:25:55;18.30;95.70
7606;DHT22;3844;53.360;9.738;2022-08-19T05:27:56;18.30;95.60
7606;DHT22;3844;53.360;9.738;2022-08-19T05:29:57;18.30;95.30
7606;DHT22;3844;53.360;9.738;2022-08-19T05:31:58;18.30;95.70
7606;DHT22;3844;53.360;9.738;2022-08-19T05:33:59;18.30;95.70
7606;DHT22;3844;53.360;9.738;2022-08-19T05:36:01;18.30;95.70
7606;DHT22;3844;53.360;9.738;2022-08-19T05:38:02;18.30;95.70
7606;DHT22;3844;53.360;9.738;2022-08-19T05:40:04;18.30;95.70
7606;DHT22;3844;53.360;9.738;2022-08-19T05:42:08;18.30;95.70
7606;DHT22;3844;53.360;9.738;2022-08-19T05:44:09;18.20;95.70
7606;DHT22;3844;53.360;9.738;2022-08-19T05:46:17;18.20;95.70
7606;DHT22;3844;53.360;9.738;2022-08-19T05:48:18;18.20;95.70
7606;DHT22;3844;53.360;9.738;2022-08-19T05:50:21;18.20;95.70
7606;DHT22;3844;53.360;9.738;2022-08-19T05:52:21;18.30;95.70
7606;DHT22;3844;53.360;9.738;2022-08-19T05:54:23;18.30;95.60
7606;DHT22;3844;53.360;9.738;2022-08-19T05:56:24;18.30;95.50
7606;DHT22;3844;53.360;9.738;2022-08-19T05:58:27;18.30;95.60
7606;DHT22;3844;53.360;9.738;2022-08-19T06:00:31;18.30;95.60
7606;DHT22;3844;53.360;9.738;2022-08-19T06:02:32;18.30;95.60
7606;DHT22;3844;53.360;9.738;2022-08-19T06:04:33;18.40;95.70
7606;DHT22;3844;53.360;9.738;2022-08-19T06:06:35;18.40;95.60
7606;DHT22;3844;53.360;9.738;2022-08-19T06:08:36;18.50;95.50
7606;DHT22;3844;53.360;9.738;2022-08-19T06:10:38;18.50;95.50
7606;DHT22;3844;53.360;9.738;2022-08-19T06:12:39;18.50;95.00
7606;DHT22;3844;53.360;9.738;2022-08-19T06:14:39;18.50;95.30
7606;DHT22;3844;53.360;9.738;2022-08-19T06:16:42;18.50;95.20
7606;DHT22;3844;53.360;9.738;2022-08-19T06:18:43;18.50;95.00
7606;DHT22;3844;53.360;9.738;2022-08-19T06:20:44;18.50;95.00
7606;DHT22;3844;53.360;9.738;2022-08-19T06:22:47;18.50;95.10
7606;DHT22;3844;53.360;9.738;2022-08-19T06:24:50;18.50;95.10
7606;DHT22;3844;53.360;9.738;2022-08-19T06:26:54;18.50;94.90
7606;DHT22;3844;53.360;9.738;2022-08-19T06:28:55;18.50;95.30
7606;DHT22;3844;53.360;9.738;2022-08-19T06:30:55;18.50;95.30
7606;DHT22;3844;53.360;9.738;2022-08-19T06:32:56;18.50;95.30
7606;DHT22;3844;53.360;9.738;2022-08-19T06:34:57;18.50;95.00
7606;DHT22;3844;53.360;9.738;2022-08-19T06:37:00;18.50;95.50
7606;DHT22;3844;53.360;9.738;2022-08-19T06:39:12;18.40;95.50
7606;DHT22;3844;53.360;9.738;2022-08-19T06:41:13;18.50;95.60
7606;DHT22;3844;53.360;9.738;2022-08-19T06:43:14;18.50;95.60
7606;DHT22;3844;53.360;9.738;2022-08-19T06:45:16;18.50;95.60
7606;DHT22;3844;53.360;9.738;2022-08-19T06:47:20;18.50;95.70
7606;DHT22;3844;53.360;9.738;2022-08-19T06:49:22;18.60;95.70
7606;DHT22;3844;53.360;9.738;2022-08-19T06:51:24;18.60;95.50
7606;DHT22;3844;53.360;9.738;2022-08-19T06:53:25;18.60;95.60
7606;DHT22;3844;53.360;9.738;2022-08-19T06:55:28;18.60;95.70
7606;DHT22;3844;53.360;9.738;2022-08-19T06:57:30;18.60;95.70
7606;DHT22;3844;53.360;9.738;2022-08-19T06:59:33;18.70;95.70
7606;DHT22;3844;53.360;9.738;2022-08-19T07:01:48;18.70;95.70
7606;DHT22;3844;53.360;9.738;2022-08-19T07:03:49;18.70;95.70
7606;DHT22;3844;53.360;9.738;2022-08-19T07:05:50;18.70;95.40
7606;DHT22;3844;53.360;9.738;2022-08-19T07:07:51;18.70;95.30
7606;DHT22;3844;53.360;9.738;2022-08-19T07:09:51;18.60;95.60
7606;DHT22;3844;53.360;9.738;2022-08-19T07:11:54;18.60;95.70
7606;DHT22;3844;53.360;9.738;2022-08-19T07:13:55;18.50;95.60
7606;DHT22;3844;53.360;9.738;2022-08-19T07:15:56;18.50;95.70
7606;DHT22;3844;53.360;9.738;2022-08-19T07:17:56;18.40;95.70
7606;DHT22;3844;53.360;9.738;2022-08-19T07:19:58;18.40;95.70
7606;DHT22;3844;53.360;9.738;2022-08-19T07:22:01;18.40;95.70
7606;DHT22;3844;53.360;9.738;2022-08-19T07:24:02;18.40;95.70
7606;DHT22;3844;53.360;9.738;2022-08-19T07:28:17;18.40;95.70
7606;DHT22;3844;53.360;9.738;2022-08-19T07:30:18;18.40;95.70
7606;DHT22;3844;53.360;9.738;2022-08-19T07:32:19;18.40;95.70
7606;DHT22;3844;53.360;9.738;2022-08-19T07:34:20;18.40;95.70
7606;DHT22;3844;53.360;9.738;2022-08-19T07:36:26;18.40;95.70
7606;DHT22;3844;53.360;9.738;2022-08-19T07:38:33;18.30;95.70
7606;DHT22;3844;53.360;9.738;2022-08-19T07:40:34;18.30;95.70
7606;DHT22;3844;53.360;9.738;2022-08-19T07:42:35;18.30;95.70
7606;DHT22;3844;53.360;9.738;2022-08-19T07:44:36;18.30;95.70
7606;DHT22;3844;53.360;9.738;2022-08-19T07:46:40;18.40;95.70
7606;DHT22;3844;53.360;9.738;2022-08-19T07:48:42;18.40;95.70
7606;DHT22;3844;53.360;9.738;2022-08-19T07:50:44;18.40;95.70
7606;DHT22;3844;53.360;9.738;2022-08-19T07:52:45;18.50;95.70
7606;DHT22;3844;53.360;9.738;2022-08-19T07:54:46;18.50;95.70
7606;DHT22;3844;53.360;9.738;2022-08-19T07:56:47;18.40;95.70
7606;DHT22;3844;53.360;9.738;2022-08-19T07:58:51;18.40;95.70
7606;DHT22;3844;53.360;9.738;2022-08-19T08:00:52;18.50;95.70
7606;DHT22;3844;53.360;9.738;2022-08-19T08:02:53;18.50;95.70
7606;DHT22;3844;53.360;9.738;2022-08-19T08:04:53;18.50;95.70
7606;DHT22;3844;53.360;9.738;2022-08-19T08:07:13;18.50;95.70
7606;DHT22;3844;53.360;9.738;2022-08-19T08:09:35;18.50;95.70
7606;DHT22;3844;53.360;9.738;2022-08-19T08:11:40;18.60;95.70
7606;DHT22;3844;53.360;9.738;2022-08-19T08:13:42;18.60;95.70
7606;DHT22;3844;53.360;9.738;2022-08-19T08:15:43;18.60;95.70
7606;DHT22;3844;53.360;9.738;2022-08-19T08:17:45;18.60;95.70
7606;DHT22;3844;53.360;9.738;2022-08-19T08:19:46;18.60;95.70
7606;DHT22;3844;53.360;9.738;2022-08-19T08:21:48;18.60;95.70
7606;DHT22;3844;53.360;9.738;2022-08-19T08:23:49;18.60;95.70
7606;DHT22;3844;53.360;9.738;2022-08-19T08:25:53;18.70;95.70
7606;DHT22;3844;53.360;9.738;2022-08-19T08:27:55;18.70;95.70
7606;DHT22;3844;53.360;9.738;2022-08-19T08:29:57;18.70;95.70
7606;DHT22;3844;53.360;9.738;2022-08-19T08:31:58;18.80;95.70
7606;DHT22;3844;53.360;9.738;2022-08-19T08:33:59;18.90;95.70
7606;DHT22;3844;53.360;9.738;2022-08-19T08:36:09;19.00;95.70
7606;DHT22;3844;53.360;9.738;2022-08-19T08:38:11;19.10;95.00
7606;DHT22;3844;53.360;9.738;2022-08-19T08:42:32;19.20;94.80
7606;DHT22;3844;53.360;9.738;2022-08-19T08:47:00;19.20;94.10
7606;DHT22;3844;53.360;9.738;2022-08-19T08:51:29;19.20;94.70
7606;DHT22;3844;53.360;9.738;2022-08-19T08:53:34;19.30;94.70
7606;DHT22;3844;53.360;9.738;2022-08-19T08:55:36;19.30;93.80
7606;DHT22;3844;53.360;9.738;2022-08-19T08:59:41;19.30;94.30
7606;DHT22;3844;53.360;9.738;2022-08-19T09:03:44;19.60;93.70
7606;DHT22;3844;53.360;9.738;2022-08-19T09:10:51;20.00;92.50
7606;DHT22;3844;53.360;9.738;2022-08-19T09:15:32;20.10;91.80
7606;DHT22;3844;53.360;9.738;2022-08-19T09:17:35;20.10;91.60
7606;DHT22;3844;53.360;9.738;2022-08-19T09:20:11;20.00;91.70
7606;DHT22;3844;53.360;9.738;2022-08-19T09:22:13;20.00;92.10
7606;DHT22;3844;53.360;9.738;2022-08-19T09:24:15;20.00;91.50
7606;DHT22;3844;53.360;9.738;2022-08-19T09:26:19;20.00;91.00
7606;DHT22;3844;53.360;9.738;2022-08-19T09:28:20;20.00;91.40
7606;DHT22;3844;53.360;9.738;2022-08-19T09:30:24;20.10;92.00
7606;DHT22;3844;53.360;9.738;2022-08-19T09:32:26;20.30;91.20
7606;DHT22;3844;53.360;9.738;2022-08-19T09:34:27;20.50;91.40
7606;DHT22;3844;53.360;9.738;2022-08-19T09:36:30;20.70;90.80
7606;DHT22;3844;53.360;9.738;2022-08-19T09:38:34;20.90;89.70
7606;DHT22;3844;53.360;9.738;2022-08-19T09:40:35;21.00;88.80
7606;DHT22;3844;53.360;9.738;2022-08-19T09:42:36;21.10;89.60
7606;DHT22;3844;53.360;9.738;2022-08-19T09:44:37;21.20;89.20
7606;DHT22;3844;53.360;9.738;2022-08-19T09:46:38;21.30;89.20
7606;DHT22;3844;53.360;9.738;2022-08-19T09:48:41;21.40;88.60
7606;DHT22;3844;53.360;9.738;2022-08-19T09:50:42;21.50;87.20
7606;DHT22;3844;53.360;9.738;2022-08-19T09:52:43;21.60;87.20
7606;DHT22;3844;53.360;9.738;2022-08-19T09:54:44;21.60;86.70
7606;DHT22;3844;53.360;9.738;2022-08-19T09:56:44;21.60;87.00
7606;DHT22;3844;53.360;9.738;2022-08-19T09:58:45;21.70;86.80
7606;DHT22;3844;53.360;9.738;2022-08-19T10:00:46;21.70;86.20
7606;DHT22;3844;53.360;9.738;2022-08-19T10:02:47;21.70;86.40
7606;DHT22;3844;53.360;9.738;2022-08-19T10:04:48;21.60;86.50
7606;DHT22;3844;53.360;9.738;2022-08-19T10:07:07;21.50;86.10
7606;DHT22;3844;53.360;9.738;2022-08-19T10:09:09;21.50;87.00
7606;DHT22;3844;53.360;9.738;2022-08-19T10:11:11;21.40;86.10
7606;DHT22;3844;53.360;9.738;2022-08-19T10:13:16;21.40;87.00
7606;DHT22;3844;53.360;9.738;2022-08-19T10:15:17;21.30;86.70
7606;DHT22;3844;53.360;9.738;2022-08-19T10:17:21;21.30;87.40
7606;DHT22;3844;53.360;9.738;2022-08-19T10:19:22;21.30;86.90
7606;DHT22;3844;53.360;9.738;2022-08-19T10:21:25;21.30;87.70
7606;DHT22;3844;53.360;9.738;2022-08-19T10:25:32;21.60;87.30
7606;DHT22;3844;53.360;9.738;2022-08-19T10:27:34;21.60;87.30
7606;DHT22;3844;53.360;9.738;2022-08-19T10:29:34;21.70;86.20
7606;DHT22;3844;53.360;9.738;2022-08-19T10:31:35;21.80;85.90
7606;DHT22;3844;53.360;9.738;2022-08-19T10:33:37;21.80;85.60
7606;DHT22;3844;53.360;9.738;2022-08-19T10:35:38;21.90;84.90
7606;DHT22;3844;53.360;9.738;2022-08-19T10:37:39;21.90;85.80
7606;DHT22;3844;53.360;9.738;2022-08-19T10:39:40;21.90;85.50
7606;DHT22;3844;53.360;9.738;2022-08-19T10:41:41;22.00;85.50
7606;DHT22;3844;53.360;9.738;2022-08-19T10:43:44;22.10;85.70
7606;DHT22;3844;53.360;9.738;2022-08-19T10:45:52;22.20;85.20
7606;DHT22;3844;53.360;9.738;2022-08-19T10:47:54;22.30;84.60
7606;DHT22;3844;53.360;9.738;2022-08-19T10:49:55;22.40;84.20
7606;DHT22;3844;53.360;9.738;2022-08-19T10:52:14;22.60;83.50
7606;DHT22;3844;53.360;9.738;2022-08-19T10:54:34;22.80;84.00
7606;DHT22;3844;53.360;9.738;2022-08-19T10:56:53;22.90;82.90
7606;DHT22;3844;53.360;9.738;2022-08-19T10:58:53;23.10;82.80
7606;DHT22;3844;53.360;9.738;2022-08-19T11:00:58;23.20;82.20
7606;DHT22;3844;53.360;9.738;2022-08-19T11:02:59;23.40;81.80
7606;DHT22;3844;53.360;9.738;2022-08-19T11:04:59;23.40;81.00
7606;DHT22;3844;53.360;9.738;2022-08-19T11:07:00;23.60;81.30
7606;DHT22;3844;53.360;9.738;2022-08-19T11:09:01;23.70;81.10
7606;DHT22;3844;53.360;9.738;2022-08-19T11:11:02;23.90;80.30
7606;DHT22;3844;53.360;9.738;2022-08-19T11:13:03;23.90;80.00
7606;DHT22;3844;53.360;9.738;2022-08-19T11:15:05;23.80;78.30
7606;DHT22;3844;53.360;9.738;2022-08-19T11:17:07;23.40;80.00
7606;DHT22;3844;53.360;9.738;2022-08-19T11:19:10;23.30;81.20
7606;DHT22;3844;53.360;9.738;2022-08-19T11:23:13;23.20;82.30
7606;DHT22;3844;53.360;9.738;2022-08-19T11:25:14;23.30;82.20
7606;DHT22;3844;53.360;9.738;2022-08-19T11:27:15;23.40;81.70
7606;DHT22;3844;53.360;9.738;2022-08-19T11:29:18;23.70;81.80
7606;DHT22;3844;53.360;9.738;2022-08-19T11:31:21;24.00;80.70
7606;DHT22;3844;53.360;9.738;2022-08-19T11:33:22;24.30;79.60
7606;DHT22;3844;53.360;9.738;2022-08-19T11:35:22;24.50;79.00
7606;DHT22;3844;53.360;9.738;2022-08-19T11:39:26;24.60;77.70
7606;DHT22;3844;53.360;9.738;2022-08-19T11:41:27;24.80;78.10
7606;DHT22;3844;53.360;9.738;2022-08-19T11:43:28;25.00;76.50
7606;DHT22;3844;53.360;9.738;2022-08-19T11:45:30;25.20;77.30
7606;DHT22;3844;53.360;9.738;2022-08-19T11:47:31;25.50;76.80
7606;DHT22;3844;53.360;9.738;2022-08-19T11:49:31;25.70;76.10
7606;DHT22;3844;53.360;9.738;2022-08-19T11:51:32;26.10;75.30
7606;DHT22;3844;53.360;9.738;2022-08-19T11:53:35;26.30;74.30
7606;DHT22;3844;53.360;9.738;2022-08-19T11:55:39;26.40;74.30
7606;DHT22;3844;53.360;9.738;2022-08-19T11:57:40;26.60;73.90
7606;DHT22;3844;53.360;9.738;2022-08-19T11:59:42;26.50;72.90
7606;DHT22;3844;53.360;9.738;2022-08-19T12:01:43;26.50;72.80
7606;DHT22;3844;53.360;9.738;2022-08-19T12:03:45;26.60;73.80
7606;DHT22;3844;53.360;9.738;2022-08-19T12:05:47;26.70;72.10
7606;DHT22;3844;53.360;9.738;2022-08-19T12:07:47;26.80;72.70
7606;DHT22;3844;53.360;9.738;2022-08-19T12:09:48;27.00;72.10
7606;DHT22;3844;53.360;9.738;2022-08-19T12:11:49;27.10;70.10
7606;DHT22;3844;53.360;9.738;2022-08-19T12:13:51;27.20;71.00
7606;DHT22;3844;53.360;9.738;2022-08-19T12:15:52;27.30;71.10
7606;DHT22;3844;53.360;9.738;2022-08-19T12:17:53;27.30;70.90
7606;DHT22;3844;53.360;9.738;2022-08-19T12:19:56;27.30;70.80
7606;DHT22;3844;53.360;9.738;2022-08-19T12:22:00;27.40;71.10
7606;DHT22;3844;53.360;9.738;2022-08-19T12:24:06;27.50;71.20
7606;DHT22;3844;53.360;9.738;2022-08-19T12:26:09;27.80;70.50
7606;DHT22;3844;53.360;9.738;2022-08-19T12:28:10;27.90;69.70
7606;DHT22;3844;53.360;9.738;2022-08-19T12:30:12;27.90;69.10
7606;DHT22;3844;53.360;9.738;2022-08-19T12:32:13;27.60;69.60
7606;DHT22;3844;53.360;9.738;2022-08-19T12:34:15;27.30;68.70
7606;DHT22;3844;53.360;9.738;2022-08-19T12:36:16;27.10;69.80
7606;DHT22;3844;53.360;9.738;2022-08-19T12:38:18;26.90;70.80
7606;DHT22;3844;53.360;9.738;2022-08-19T12:40:19;26.80;70.70
7606;DHT22;3844;53.360;9.738;2022-08-19T12:42:20;26.80;71.60
7606;DHT22;3844;53.360;9.738;2022-08-19T12:44:23;26.90;71.80
7606;DHT22;3844;53.360;9.738;2022-08-19T12:46:24;27.00;71.90
7606;DHT22;3844;53.360;9.738;2022-08-19T12:48:25;27.00;71.10
7606;DHT22;3844;53.360;9.738;2022-08-19T12:50:25;26.90;71.80
7606;DHT22;3844;53.360;9.738;2022-08-19T12:52:26;26.90;71.20
7606;DHT22;3844;53.360;9.738;2022-08-19T12:54:28;27.00;71.00
7606;DHT22;3844;53.360;9.738;2022-08-19T12:56:30;27.00;70.90
7606;DHT22;3844;53.360;9.738;2022-08-19T12:58:31;26.90;71.80
7606;DHT22;3844;53.360;9.738;2022-08-19T13:00:35;27.00;71.80
7606;DHT22;3844;53.360;9.738;2022-08-19T13:02:36;27.10;70.90
7606;DHT22;3844;53.360;9.738;2022-08-19T13:04:37;27.10;71.30
7606;DHT22;3844;53.360;9.738;2022-08-19T13:06:41;27.10;71.50
7606;DHT22;3844;53.360;9.738;2022-08-19T13:08:42;27.10;70.60
7606;DHT22;3844;53.360;9.738;2022-08-19T13:12:46;27.10;71.10
7606;DHT22;3844;53.360;9.738;2022-08-19T13:14:47;26.90;70.10
7606;DHT22;3844;53.360;9.738;2022-08-19T13:18:51;26.80;71.40
7606;DHT22;3844;53.360;9.738;2022-08-19T13:20:52;26.70;70.70
7606;DHT22;3844;53.360;9.738;2022-08-19T13:22:54;26.40;71.60
7606;DHT22;3844;53.360;9.738;2022-08-19T13:24:55;26.30;72.10
7606;DHT22;3844;53.360;9.738;2022-08-19T13:26:55;26.30;72.40
7606;DHT22;3844;53.360;9.738;2022-08-19T13:28:56;26.20;72.00
7606;DHT22;3844;53.360;9.738;2022-08-19T13:31:17;26.30;72.60
7606;DHT22;3844;53.360;9.738;2022-08-19T13:33:36;26.30;72.70
7606;DHT22;3844;53.360;9.738;2022-08-19T13:35:56;26.40;72.10
7606;DHT22;3844;53.360;9.738;2022-08-19T13:37:57;26.60;70.80
7606;DHT22;3844;53.360;9.738;2022-08-19T13:39:58;26.70;70.60
7606;DHT22;3844;53.360;9.738;2022-08-19T13:41:59;26.60;69.30
7606;DHT22;3844;53.360;9.738;2022-08-19T13:44:00;26.50;70.20
7606;DHT22;3844;53.360;9.738;2022-08-19T13:46:09;26.60;70.40
7606;DHT22;3844;53.360;9.738;2022-08-19T13:48:10;26.70;69.50
7606;DHT22;3844;53.360;9.738;2022-08-19T13:50:13;26.70;70.20
7606;DHT22;3844;53.360;9.738;2022-08-19T13:52:14;26.70;69.40
7606;DHT22;3844;53.360;9.738;2022-08-19T13:54:15;26.60;69.90
7606;DHT22;3844;53.360;9.738;2022-08-19T13:56:17;26.70;70.30
7606;DHT22;3844;53.360;9.738;2022-08-19T13:58:19;26.90;69.30
7606;DHT22;3844;53.360;9.738;2022-08-19T14:00:21;26.80;68.20
7606;DHT22;3844;53.360;9.738;2022-08-19T14:02:25;26.70;69.00